This is the latest recevied weather packets stored in our database for station/object DO1YM-13. If no packets are shown the sender has not sent any weather packets the latest 10 day(s).
| Time | Temp. | Humidity | Pressure | Rain* | Wind** | Luminosity | Snow |
|---|---|---|---|---|---|---|---|
| 1787732748 | 19.44° C | 59% | 1016.6 hPa | 0 mm | - | 186 W/m² | - |
| 1787732448 | 20° C | 59% | 1016.3 hPa | 0 mm | - | 217 W/m² | - |
| 1787732148 | 20° C | 59% | 1016.6 hPa | 0 mm | - | 197 W/m² | - |
| 1787731848 | 21.11° C | 57% | 1016.6 hPa | 0 mm | - | 230 W/m² | - |
| 1787731548 | 20.56° C | 58% | 1016.6 hPa | 0 mm | - | 349 W/m² | - |
| 1787731248 | 20° C | 58% | 1016.6 hPa | 0 mm | - | 441 W/m² | - |
| 1787730950 | 19.44° C | 59% | 1016.6 hPa | 0 mm | - | 449 W/m² | - |
| 1787730647 | 18.89° C | 60% | 1016.3 hPa | 0 mm | - | 370 W/m² | - |
| 1787730348 | 18.33° C | 64% | 1016.3 hPa | 0 mm | - | 269 W/m² | - |
| 1787730047 | 18.33° C | 64% | 1016.3 hPa | 0 mm | - | 195 W/m² | - |
| 1787729748 | 18.33° C | 63% | 1016.3 hPa | 0 mm | - | 131 W/m² | - |
| 1787729449 | 17.78° C | 64% | 1016.3 hPa | 0 mm | - | 124 W/m² | - |
| 1787729148 | 17.78° C | 65% | 1016.3 hPa | 0 mm | - | 126 W/m² | - |
| 1787728848 | 17.22° C | 67% | 1016.6 hPa | 0 mm | - | 130 W/m² | - |
| 1787728547 | 17.22° C | 68% | 1015.9 hPa | 0 mm | - | 124 W/m² | - |
| 1787728247 | 17.22° C | 68% | 1015.9 hPa | 0 mm | - | 114 W/m² | - |
| 1787727948 | 16.67° C | 69% | 1015.9 hPa | 0 mm | - | 101 W/m² | - |
| 1787727648 | 16.67° C | 68% | 1015.9 hPa | 0 mm | - | 88 W/m² | - |
| 1787727348 | 16.67° C | 70% | 1016.3 hPa | 0 mm | - | 86 W/m² | - |
| 1787727050 | 16.67° C | 69% | 1015.9 hPa | 0 mm | - | 90 W/m² | - |
| 1787726748 | 17.22° C | 69% | 1015.9 hPa | 0 mm | - | 90 W/m² | - |
| 1787726448 | 17.22° C | 68% | 1015.9 hPa | 0 mm | - | 91 W/m² | - |
| 1787726148 | 16.67° C | 69% | 1015.9 hPa | 0 mm | - | 104 W/m² | - |
| 1787725847 | 16.11° C | 71% | 1015.9 hPa | 0 mm | - | 100 W/m² | - |
| 1787725548 | 16.11° C | 72% | 1015.9 hPa | 0 mm | - | 96 W/m² | - |
* Rain since midnight (hover to see other rain measurements)
** Current wind speed in m/s (hover to see current wind gust speed)